sensor_id;sensor_type;location;lat;lon;timestamp;temperature;humidity
30534;DHT22;17318;52.390;9.754;2022-08-19T00:01:33;22.20;99.30
30534;DHT22;17318;52.390;9.754;2022-08-19T00:04:01;22.10;99.50
30534;DHT22;17318;52.390;9.754;2022-08-19T00:06:29;22.10;99.60
30534;DHT22;17318;52.390;9.754;2022-08-19T00:08:55;22.00;99.60
30534;DHT22;17318;52.390;9.754;2022-08-19T00:11:21;21.80;99.90
30534;DHT22;17318;52.390;9.754;2022-08-19T00:13:48;21.80;99.90
30534;DHT22;17318;52.390;9.754;2022-08-19T00:16:16;21.80;99.80
30534;DHT22;17318;52.390;9.754;2022-08-19T00:18:44;21.90;99.70
30534;DHT22;17318;52.390;9.754;2022-08-19T00:21:10;21.90;99.60
30534;DHT22;17318;52.390;9.754;2022-08-19T00:23:36;21.80;99.80
30534;DHT22;17318;52.390;9.754;2022-08-19T00:26:07;21.80;99.80
30534;DHT22;17318;52.390;9.754;2022-08-19T00:28:33;21.80;99.80
30534;DHT22;17318;52.390;9.754;2022-08-19T00:31:04;21.50;99.90
30534;DHT22;17318;52.390;9.754;2022-08-19T00:33:31;21.60;99.90
30534;DHT22;17318;52.390;9.754;2022-08-19T00:36:00;21.60;99.90
30534;DHT22;17318;52.390;9.754;2022-08-19T00:38:26;21.60;99.90
30534;DHT22;17318;52.390;9.754;2022-08-19T00:40:54;21.60;99.90
30534;DHT22;17318;52.390;9.754;2022-08-19T00:43:22;21.50;99.90
30534;DHT22;17318;52.390;9.754;2022-08-19T00:45:48;21.50;99.90
30534;DHT22;17318;52.390;9.754;2022-08-19T00:48:16;21.50;99.90
30534;DHT22;17318;52.390;9.754;2022-08-19T00:50:42;21.50;99.90
30534;DHT22;17318;52.390;9.754;2022-08-19T00:53:10;21.40;99.90
30534;DHT22;17318;52.390;9.754;2022-08-19T00:55:38;21.30;99.90
30534;DHT22;17318;52.390;9.754;2022-08-19T00:58:10;21.40;99.90
30534;DHT22;17318;52.390;9.754;2022-08-19T01:00:37;21.30;99.90
30534;DHT22;17318;52.390;9.754;2022-08-19T01:03:07;21.20;99.90
30534;DHT22;17318;52.390;9.754;2022-08-19T01:05:33;21.10;99.90
30534;DHT22;17318;52.390;9.754;2022-08-19T01:08:02;21.10;99.90
30534;DHT22;17318;52.390;9.754;2022-08-19T01:10:31;21.00;99.90
30534;DHT22;17318;52.390;9.754;2022-08-19T01:12:59;21.10;99.90
30534;DHT22;17318;52.390;9.754;2022-08-19T01:15:32;21.00;99.90
30534;DHT22;17318;52.390;9.754;2022-08-19T01:18:05;21.10;99.90
30534;DHT22;17318;52.390;9.754;2022-08-19T01:20:31;21.00;99.90
30534;DHT22;17318;52.390;9.754;2022-08-19T01:22:59;21.00;99.90
30534;DHT22;17318;52.390;9.754;2022-08-19T01:25:29;21.00;99.90
30534;DHT22;17318;52.390;9.754;2022-08-19T01:27:56;21.00;99.90
30534;DHT22;17318;52.390;9.754;2022-08-19T01:30:28;21.00;99.90
30534;DHT22;17318;52.390;9.754;2022-08-19T01:32:54;21.00;99.90
30534;DHT22;17318;52.390;9.754;2022-08-19T01:35:21;21.00;99.90
30534;DHT22;17318;52.390;9.754;2022-08-19T01:37:50;21.00;99.90
30534;DHT22;17318;52.390;9.754;2022-08-19T01:40:18;21.10;99.90
30534;DHT22;17318;52.390;9.754;2022-08-19T01:42:47;21.10;99.90
30534;DHT22;17318;52.390;9.754;2022-08-19T01:45:13;21.10;99.90
30534;DHT22;17318;52.390;9.754;2022-08-19T01:47:39;21.00;99.90
30534;DHT22;17318;52.390;9.754;2022-08-19T01:50:06;21.10;99.90
30534;DHT22;17318;52.390;9.754;2022-08-19T01:52:35;21.10;99.90
30534;DHT22;17318;52.390;9.754;2022-08-19T01:55:01;21.10;99.90
30534;DHT22;17318;52.390;9.754;2022-08-19T01:57:27;21.20;99.90
30534;DHT22;17318;52.390;9.754;2022-08-19T01:59:53;21.10;99.90
30534;DHT22;17318;52.390;9.754;2022-08-19T02:02:19;21.10;99.90
30534;DHT22;17318;52.390;9.754;2022-08-19T02:04:44;21.00;99.90
30534;DHT22;17318;52.390;9.754;2022-08-19T02:07:11;21.10;99.90
30534;DHT22;17318;52.390;9.754;2022-08-19T02:09:37;21.00;99.90
30534;DHT22;17318;52.390;9.754;2022-08-19T02:12:04;21.00;99.90
30534;DHT22;17318;52.390;9.754;2022-08-19T02:14:30;21.00;99.90
30534;DHT22;17318;52.390;9.754;2022-08-19T02:16:56;21.00;99.90
30534;DHT22;17318;52.390;9.754;2022-08-19T02:19:22;21.00;99.90
30534;DHT22;17318;52.390;9.754;2022-08-19T02:21:47;21.00;99.90
30534;DHT22;17318;52.390;9.754;2022-08-19T02:24:13;21.00;99.90
30534;DHT22;17318;52.390;9.754;2022-08-19T02:26:39;20.90;99.90
30534;DHT22;17318;52.390;9.754;2022-08-19T02:29:04;20.90;99.90
30534;DHT22;17318;52.390;9.754;2022-08-19T02:31:30;21.00;99.90
30534;DHT22;17318;52.390;9.754;2022-08-19T02:33:56;21.00;99.90
30534;DHT22;17318;52.390;9.754;2022-08-19T02:36:24;20.90;99.90
30534;DHT22;17318;52.390;9.754;2022-08-19T02:38:50;20.90;99.90
30534;DHT22;17318;52.390;9.754;2022-08-19T02:41:19;20.80;99.90
30534;DHT22;17318;52.390;9.754;2022-08-19T02:43:45;20.70;99.90
30534;DHT22;17318;52.390;9.754;2022-08-19T02:46:13;20.80;99.90
30534;DHT22;17318;52.390;9.754;2022-08-19T02:48:39;20.80;99.90
30534;DHT22;17318;52.390;9.754;2022-08-19T02:51:05;20.80;99.90
30534;DHT22;17318;52.390;9.754;2022-08-19T02:53:31;20.80;99.90
30534;DHT22;17318;52.390;9.754;2022-08-19T02:55:57;20.80;99.90
30534;DHT22;17318;52.390;9.754;2022-08-19T02:58:23;20.80;99.90
30534;DHT22;17318;52.390;9.754;2022-08-19T03:00:54;20.70;99.90
30534;DHT22;17318;52.390;9.754;2022-08-19T03:03:20;20.70;99.90
30534;DHT22;17318;52.390;9.754;2022-08-19T03:05:47;20.70;99.90
30534;DHT22;17318;52.390;9.754;2022-08-19T03:08:13;20.70;99.90
30534;DHT22;17318;52.390;9.754;2022-08-19T03:10:46;20.70;99.90
30534;DHT22;17318;52.390;9.754;2022-08-19T03:13:16;20.90;99.90
30534;DHT22;17318;52.390;9.754;2022-08-19T03:15:46;20.80;99.90
30534;DHT22;17318;52.390;9.754;2022-08-19T03:18:12;20.80;99.90
30534;DHT22;17318;52.390;9.754;2022-08-19T03:20:50;20.80;99.90
30534;DHT22;17318;52.390;9.754;2022-08-19T03:23:17;20.70;99.90
30534;DHT22;17318;52.390;9.754;2022-08-19T03:25:45;20.80;99.90
30534;DHT22;17318;52.390;9.754;2022-08-19T03:28:13;20.70;99.90
30534;DHT22;17318;52.390;9.754;2022-08-19T03:30:42;20.70;99.90
30534;DHT22;17318;52.390;9.754;2022-08-19T03:33:10;20.80;99.90
30534;DHT22;17318;52.390;9.754;2022-08-19T03:35:37;20.80;99.90
30534;DHT22;17318;52.390;9.754;2022-08-19T03:38:05;20.90;99.90
30534;DHT22;17318;52.390;9.754;2022-08-19T03:40:32;20.90;99.90
30534;DHT22;17318;52.390;9.754;2022-08-19T03:43:01;20.90;99.90
30534;DHT22;17318;52.390;9.754;2022-08-19T03:45:27;20.90;99.90
30534;DHT22;17318;52.390;9.754;2022-08-19T03:47:53;20.80;99.90
30534;DHT22;17318;52.390;9.754;2022-08-19T03:50:20;20.80;99.90
30534;DHT22;17318;52.390;9.754;2022-08-19T03:52:49;20.60;99.90
30534;DHT22;17318;52.390;9.754;2022-08-19T03:55:16;20.50;99.90
30534;DHT22;17318;52.390;9.754;2022-08-19T03:57:42;20.40;99.90
30534;DHT22;17318;52.390;9.754;2022-08-19T04:00:08;20.50;99.90
30534;DHT22;17318;52.390;9.754;2022-08-19T04:02:34;20.30;99.90
30534;DHT22;17318;52.390;9.754;2022-08-19T04:05:00;20.30;99.90
30534;DHT22;17318;52.390;9.754;2022-08-19T04:07:26;20.30;99.90
30534;DHT22;17318;52.390;9.754;2022-08-19T04:09:52;20.40;99.90
30534;DHT22;17318;52.390;9.754;2022-08-19T04:12:18;20.50;99.90
30534;DHT22;17318;52.390;9.754;2022-08-19T04:14:45;20.50;99.90
30534;DHT22;17318;52.390;9.754;2022-08-19T04:17:11;20.50;99.90
30534;DHT22;17318;52.390;9.754;2022-08-19T04:19:39;20.50;99.90
30534;DHT22;17318;52.390;9.754;2022-08-19T04:22:05;20.50;99.90
30534;DHT22;17318;52.390;9.754;2022-08-19T04:24:32;20.50;99.90
30534;DHT22;17318;52.390;9.754;2022-08-19T04:27:00;20.40;99.90
30534;DHT22;17318;52.390;9.754;2022-08-19T04:29:26;20.20;99.90
30534;DHT22;17318;52.390;9.754;2022-08-19T04:31:55;20.10;99.90
30534;DHT22;17318;52.390;9.754;2022-08-19T04:34:23;20.00;99.90
30534;DHT22;17318;52.390;9.754;2022-08-19T04:36:50;20.00;99.90
30534;DHT22;17318;52.390;9.754;2022-08-19T04:39:19;20.10;99.90
30534;DHT22;17318;52.390;9.754;2022-08-19T04:41:45;20.20;99.90
30534;DHT22;17318;52.390;9.754;2022-08-19T04:44:31;20.20;99.90
30534;DHT22;17318;52.390;9.754;2022-08-19T04:46:57;20.30;99.90
30534;DHT22;17318;52.390;9.754;2022-08-19T04:49:24;20.30;99.90
30534;DHT22;17318;52.390;9.754;2022-08-19T04:51:52;20.30;99.90
30534;DHT22;17318;52.390;9.754;2022-08-19T04:54:20;20.30;99.90
30534;DHT22;17318;52.390;9.754;2022-08-19T04:56:51;20.30;99.90
30534;DHT22;17318;52.390;9.754;2022-08-19T04:59:19;20.30;99.90
30534;DHT22;17318;52.390;9.754;2022-08-19T05:01:46;20.20;99.90
30534;DHT22;17318;52.390;9.754;2022-08-19T05:04:17;20.30;99.90
30534;DHT22;17318;52.390;9.754;2022-08-19T05:06:45;20.30;99.90
30534;DHT22;17318;52.390;9.754;2022-08-19T05:09:12;20.30;99.90
30534;DHT22;17318;52.390;9.754;2022-08-19T05:11:38;20.30;99.90
30534;DHT22;17318;52.390;9.754;2022-08-19T05:14:05;20.20;99.90
30534;DHT22;17318;52.390;9.754;2022-08-19T05:16:31;20.10;99.90
30534;DHT22;17318;52.390;9.754;2022-08-19T05:18:57;20.20;99.90
30534;DHT22;17318;52.390;9.754;2022-08-19T05:21:42;20.30;99.90
30534;DHT22;17318;52.390;9.754;2022-08-19T05:24:28;20.30;99.90
30534;DHT22;17318;52.390;9.754;2022-08-19T05:26:55;20.20;99.90
30534;DHT22;17318;52.390;9.754;2022-08-19T05:29:26;20.20;99.90
30534;DHT22;17318;52.390;9.754;2022-08-19T05:31:53;20.10;99.90
30534;DHT22;17318;52.390;9.754;2022-08-19T05:34:21;20.00;99.90
30534;DHT22;17318;52.390;9.754;2022-08-19T05:36:50;20.10;99.90
30534;DHT22;17318;52.390;9.754;2022-08-19T05:39:19;20.10;99.90
30534;DHT22;17318;52.390;9.754;2022-08-19T05:41:54;20.20;99.90
30534;DHT22;17318;52.390;9.754;2022-08-19T05:44:23;20.20;99.90
30534;DHT22;17318;52.390;9.754;2022-08-19T05:46:49;20.10;99.90
30534;DHT22;17318;52.390;9.754;2022-08-19T05:49:19;20.10;99.90
30534;DHT22;17318;52.390;9.754;2022-08-19T05:51:45;20.20;99.90
30534;DHT22;17318;52.390;9.754;2022-08-19T05:54:11;20.10;99.90
30534;DHT22;17318;52.390;9.754;2022-08-19T05:56:40;20.20;99.90
30534;DHT22;17318;52.390;9.754;2022-08-19T05:59:07;20.20;99.90
30534;DHT22;17318;52.390;9.754;2022-08-19T06:01:36;20.00;99.90
30534;DHT22;17318;52.390;9.754;2022-08-19T06:04:03;20.10;99.90
30534;DHT22;17318;52.390;9.754;2022-08-19T06:06:28;19.80;99.90
30534;DHT22;17318;52.390;9.754;2022-08-19T06:08:54;20.10;99.90
30534;DHT22;17318;52.390;9.754;2022-08-19T06:11:24;20.10;99.90
30534;DHT22;17318;52.390;9.754;2022-08-19T06:13:53;20.20;99.90
30534;DHT22;17318;52.390;9.754;2022-08-19T06:16:21;20.30;99.90
30534;DHT22;17318;52.390;9.754;2022-08-19T06:18:56;20.20;99.90
30534;DHT22;17318;52.390;9.754;2022-08-19T06:21:25;20.00;99.90
30534;DHT22;17318;52.390;9.754;2022-08-19T06:23:51;20.10;99.90
30534;DHT22;17318;52.390;9.754;2022-08-19T06:26:19;20.10;99.90
30534;DHT22;17318;52.390;9.754;2022-08-19T06:28:46;20.20;99.90
30534;DHT22;17318;52.390;9.754;2022-08-19T06:31:14;20.30;99.90
30534;DHT22;17318;52.390;9.754;2022-08-19T06:33:43;20.30;99.90
30534;DHT22;17318;52.390;9.754;2022-08-19T06:36:25;20.30;99.90
30534;DHT22;17318;52.390;9.754;2022-08-19T06:38:56;20.30;99.90
30534;DHT22;17318;52.390;9.754;2022-08-19T06:41:25;20.40;99.90
30534;DHT22;17318;52.390;9.754;2022-08-19T06:43:52;20.40;99.90
30534;DHT22;17318;52.390;9.754;2022-08-19T06:46:18;20.30;99.90
30534;DHT22;17318;52.390;9.754;2022-08-19T06:48:46;20.30;99.90
30534;DHT22;17318;52.390;9.754;2022-08-19T06:51:15;20.40;99.90
30534;DHT22;17318;52.390;9.754;2022-08-19T06:53:44;20.50;99.90
30534;DHT22;17318;52.390;9.754;2022-08-19T06:56:11;20.50;99.90
30534;DHT22;17318;52.390;9.754;2022-08-19T06:58:38;20.50;99.90
30534;DHT22;17318;52.390;9.754;2022-08-19T07:01:04;20.60;99.90
30534;DHT22;17318;52.390;9.754;2022-08-19T07:03:32;20.70;99.80
30534;DHT22;17318;52.390;9.754;2022-08-19T07:06:11;20.70;99.80
30534;DHT22;17318;52.390;9.754;2022-08-19T07:08:38;20.80;99.80
30534;DHT22;17318;52.390;9.754;2022-08-19T07:11:08;20.80;99.70
30534;DHT22;17318;52.390;9.754;2022-08-19T07:13:36;20.80;99.60
30534;DHT22;17318;52.390;9.754;2022-08-19T07:16:08;20.80;99.70
30534;DHT22;17318;52.390;9.754;2022-08-19T07:18:35;20.90;99.70
30534;DHT22;17318;52.390;9.754;2022-08-19T07:21:09;21.00;99.50
30534;DHT22;17318;52.390;9.754;2022-08-19T07:23:35;21.00;99.30
30534;DHT22;17318;52.390;9.754;2022-08-19T07:26:15;21.10;99.20
30534;DHT22;17318;52.390;9.754;2022-08-19T07:28:41;21.10;99.10
30534;DHT22;17318;52.390;9.754;2022-08-19T07:31:11;21.10;99.10
30534;DHT22;17318;52.390;9.754;2022-08-19T07:33:37;21.10;99.10
30534;DHT22;17318;52.390;9.754;2022-08-19T07:36:07;21.20;98.90
30534;DHT22;17318;52.390;9.754;2022-08-19T07:38:36;21.10;98.90
30534;DHT22;17318;52.390;9.754;2022-08-19T07:41:09;21.20;98.90
30534;DHT22;17318;52.390;9.754;2022-08-19T07:43:35;21.10;98.80
30534;DHT22;17318;52.390;9.754;2022-08-19T07:46:01;21.20;98.80
30534;DHT22;17318;52.390;9.754;2022-08-19T07:48:27;21.10;98.70
30534;DHT22;17318;52.390;9.754;2022-08-19T07:50:59;21.00;99.00
30534;DHT22;17318;52.390;9.754;2022-08-19T07:53:31;21.10;98.90
30534;DHT22;17318;52.390;9.754;2022-08-19T07:55:59;21.20;98.90
30534;DHT22;17318;52.390;9.754;2022-08-19T07:58:34;21.30;98.80
30534;DHT22;17318;52.390;9.754;2022-08-19T08:01:02;21.20;98.80
30534;DHT22;17318;52.390;9.754;2022-08-19T08:03:30;21.20;98.70
30534;DHT22;17318;52.390;9.754;2022-08-19T08:06:15;21.20;98.80
30534;DHT22;17318;52.390;9.754;2022-08-19T08:08:59;21.20;98.70
30534;DHT22;17318;52.390;9.754;2022-08-19T08:11:42;21.20;98.50
30534;DHT22;17318;52.390;9.754;2022-08-19T08:14:14;21.20;98.70
30534;DHT22;17318;52.390;9.754;2022-08-19T08:16:40;21.30;98.40
30534;DHT22;17318;52.390;9.754;2022-08-19T08:19:07;21.30;98.30
30534;DHT22;17318;52.390;9.754;2022-08-19T08:21:33;21.30;97.80
30534;DHT22;17318;52.390;9.754;2022-08-19T08:23:59;21.20;97.80
30534;DHT22;17318;52.390;9.754;2022-08-19T08:26:25;21.40;98.00
30534;DHT22;17318;52.390;9.754;2022-08-19T08:28:52;21.50;97.60
30534;DHT22;17318;52.390;9.754;2022-08-19T08:31:18;21.50;97.30
30534;DHT22;17318;52.390;9.754;2022-08-19T08:33:45;21.30;97.40
30534;DHT22;17318;52.390;9.754;2022-08-19T08:36:11;21.50;97.50
30534;DHT22;17318;52.390;9.754;2022-08-19T08:38:40;21.70;97.50
30534;DHT22;17318;52.390;9.754;2022-08-19T08:43:40;22.20;96.70
30534;DHT22;17318;52.390;9.754;2022-08-19T08:49:26;22.60;95.90
30534;DHT22;17318;52.390;9.754;2022-08-19T08:52:10;22.40;95.30
30534;DHT22;17318;52.390;9.754;2022-08-19T08:54:41;22.30;95.30
30534;DHT22;17318;52.390;9.754;2022-08-19T08:57:15;22.50;95.80
30534;DHT22;17318;52.390;9.754;2022-08-19T08:59:46;22.70;95.00
30534;DHT22;17318;52.390;9.754;2022-08-19T09:02:16;22.80;94.80
30534;DHT22;17318;52.390;9.754;2022-08-19T09:04:42;22.90;94.50
30534;DHT22;17318;52.390;9.754;2022-08-19T09:09:50;23.10;94.10
30534;DHT22;17318;52.390;9.754;2022-08-19T09:12:39;23.20;93.80
30534;DHT22;17318;52.390;9.754;2022-08-19T09:15:11;23.20;93.50
30534;DHT22;17318;52.390;9.754;2022-08-19T09:17:39;23.30;93.10
30534;DHT22;17318;52.390;9.754;2022-08-19T09:22:38;22.90;92.70
30534;DHT22;17318;52.390;9.754;2022-08-19T09:25:07;23.00;93.00
30534;DHT22;17318;52.390;9.754;2022-08-19T09:27:33;23.00;92.80
30534;DHT22;17318;52.390;9.754;2022-08-19T09:30:03;22.90;93.30
30534;DHT22;17318;52.390;9.754;2022-08-19T09:32:30;23.20;93.20
30534;DHT22;17318;52.390;9.754;2022-08-19T09:34:56;23.50;93.60
30534;DHT22;17318;52.390;9.754;2022-08-19T09:37:24;23.70;92.60
30534;DHT22;17318;52.390;9.754;2022-08-19T09:39:50;24.00;93.10
30534;DHT22;17318;52.390;9.754;2022-08-19T09:42:16;24.40;92.20
30534;DHT22;17318;52.390;9.754;2022-08-19T09:44:43;25.00;91.00
30534;DHT22;17318;52.390;9.754;2022-08-19T09:47:10;25.70;92.00
30534;DHT22;17318;52.390;9.754;2022-08-19T09:49:37;26.80;88.50
30534;DHT22;17318;52.390;9.754;2022-08-19T09:52:05;27.70;87.60
30534;DHT22;17318;52.390;9.754;2022-08-19T09:54:33;28.20;81.30
30534;DHT22;17318;52.390;9.754;2022-08-19T09:56:59;27.80;79.30
30534;DHT22;17318;52.390;9.754;2022-08-19T09:59:29;27.60;80.50
30534;DHT22;17318;52.390;9.754;2022-08-19T10:01:55;27.50;80.20
30534;DHT22;17318;52.390;9.754;2022-08-19T10:04:22;27.30;78.50
30534;DHT22;17318;52.390;9.754;2022-08-19T10:06:49;27.30;80.40
30534;DHT22;17318;52.390;9.754;2022-08-19T10:09:16;27.30;78.70
30534;DHT22;17318;52.390;9.754;2022-08-19T10:11:43;27.90;79.00
30534;DHT22;17318;52.390;9.754;2022-08-19T10:14:15;28.20;78.10
30534;DHT22;17318;52.390;9.754;2022-08-19T10:16:42;28.60;76.60
30534;DHT22;17318;52.390;9.754;2022-08-19T10:19:08;28.70;75.10
30534;DHT22;17318;52.390;9.754;2022-08-19T10:21:35;28.10;74.90
30534;DHT22;17318;52.390;9.754;2022-08-19T10:24:03;28.00;75.60
30534;DHT22;17318;52.390;9.754;2022-08-19T10:26:32;27.80;75.40
30534;DHT22;17318;52.390;9.754;2022-08-19T10:28:58;27.90;75.70
30534;DHT22;17318;52.390;9.754;2022-08-19T10:31:28;27.80;73.60
30534;DHT22;17318;52.390;9.754;2022-08-19T10:33:55;27.70;75.60
30534;DHT22;17318;52.390;9.754;2022-08-19T10:36:30;27.70;74.20
30534;DHT22;17318;52.390;9.754;2022-08-19T10:39:00;27.80;74.90
30534;DHT22;17318;52.390;9.754;2022-08-19T10:41:30;27.70;73.10
30534;DHT22;17318;52.390;9.754;2022-08-19T10:43:59;27.80;73.00
30534;DHT22;17318;52.390;9.754;2022-08-19T10:46:27;27.90;73.30
30534;DHT22;17318;52.390;9.754;2022-08-19T10:48:53;28.10;72.10
30534;DHT22;17318;52.390;9.754;2022-08-19T10:51:20;27.50;71.10
30534;DHT22;17318;52.390;9.754;2022-08-19T10:54:04;27.30;72.40
30534;DHT22;17318;52.390;9.754;2022-08-19T10:56:31;27.20;72.30
30534;DHT22;17318;52.390;9.754;2022-08-19T10:59:25;27.20;72.50
30534;DHT22;17318;52.390;9.754;2022-08-19T11:01:53;27.30;72.80
30534;DHT22;17318;52.390;9.754;2022-08-19T11:04:20;27.40;73.10
30534;DHT22;17318;52.390;9.754;2022-08-19T11:06:48;27.60;72.70
30534;DHT22;17318;52.390;9.754;2022-08-19T11:09:17;27.40;72.20
30534;DHT22;17318;52.390;9.754;2022-08-19T11:11:43;27.40;73.00
30534;DHT22;17318;52.390;9.754;2022-08-19T11:14:13;27.30;73.40
30534;DHT22;17318;52.390;9.754;2022-08-19T11:16:39;27.50;72.60
30534;DHT22;17318;52.390;9.754;2022-08-19T11:19:08;27.50;72.90
30534;DHT22;17318;52.390;9.754;2022-08-19T11:21:38;27.70;72.80
30534;DHT22;17318;52.390;9.754;2022-08-19T11:24:07;27.20;71.10
30534;DHT22;17318;52.390;9.754;2022-08-19T11:26:34;27.10;71.30
30534;DHT22;17318;52.390;9.754;2022-08-19T11:29:01;27.40;72.00
30534;DHT22;17318;52.390;9.754;2022-08-19T11:31:30;27.50;71.50
30534;DHT22;17318;52.390;9.754;2022-08-19T11:33:57;27.70;71.10
30534;DHT22;17318;52.390;9.754;2022-08-19T11:36:25;27.60;71.40
30534;DHT22;17318;52.390;9.754;2022-08-19T11:38:51;27.60;71.20
30534;DHT22;17318;52.390;9.754;2022-08-19T11:41:20;27.70;71.40
30534;DHT22;17318;52.390;9.754;2022-08-19T11:43:46;27.60;70.70
30534;DHT22;17318;52.390;9.754;2022-08-19T11:46:13;27.40;70.30
30534;DHT22;17318;52.390;9.754;2022-08-19T11:48:39;27.60;71.50
30534;DHT22;17318;52.390;9.754;2022-08-19T11:51:08;27.70;71.30
30534;DHT22;17318;52.390;9.754;2022-08-19T11:53:35;27.70;70.70
30534;DHT22;17318;52.390;9.754;2022-08-19T11:56:02;27.70;70.80
30534;DHT22;17318;52.390;9.754;2022-08-19T11:58:30;27.60;71.10
30534;DHT22;17318;52.390;9.754;2022-08-19T12:00:56;27.50;70.30
30534;DHT22;17318;52.390;9.754;2022-08-19T12:03:22;27.30;70.90
30534;DHT22;17318;52.390;9.754;2022-08-19T12:05:48;27.30;71.00
30534;DHT22;17318;52.390;9.754;2022-08-19T12:08:15;27.30;71.90
30534;DHT22;17318;52.390;9.754;2022-08-19T12:10:41;27.40;71.60
30534;DHT22;17318;52.390;9.754;2022-08-19T12:13:08;27.50;71.80
30534;DHT22;17318;52.390;9.754;2022-08-19T12:15:38;27.50;71.30
30534;DHT22;17318;52.390;9.754;2022-08-19T12:18:07;27.60;70.80
30534;DHT22;17318;52.390;9.754;2022-08-19T12:20:38;27.60;70.20
30534;DHT22;17318;52.390;9.754;2022-08-19T12:23:05;27.60;70.60
30534;DHT22;17318;52.390;9.754;2022-08-19T12:25:32;27.70;70.60
30534;DHT22;17318;52.390;9.754;2022-08-19T12:27:58;27.80;70.50
30534;DHT22;17318;52.390;9.754;2022-08-19T12:30:24;27.70;69.90
30534;DHT22;17318;52.390;9.754;2022-08-19T12:32:50;27.70;70.40
30534;DHT22;17318;52.390;9.754;2022-08-19T12:35:17;27.70;70.40
30534;DHT22;17318;52.390;9.754;2022-08-19T12:37:46;27.70;69.90
30534;DHT22;17318;52.390;9.754;2022-08-19T12:40:13;27.80;69.90
30534;DHT22;17318;52.390;9.754;2022-08-19T12:42:39;27.70;69.80
30534;DHT22;17318;52.390;9.754;2022-08-19T12:45:10;27.70;69.40
30534;DHT22;17318;52.390;9.754;2022-08-19T12:47:37;27.60;69.80
30534;DHT22;17318;52.390;9.754;2022-08-19T12:50:03;27.70;70.90
30534;DHT22;17318;52.390;9.754;2022-08-19T12:52:30;27.60;70.50
30534;DHT22;17318;52.390;9.754;2022-08-19T12:54:57;27.80;70.90
30534;DHT22;17318;52.390;9.754;2022-08-19T12:57:25;27.70;70.80
30534;DHT22;17318;52.390;9.754;2022-08-19T12:59:54;27.70;70.30
30534;DHT22;17318;52.390;9.754;2022-08-19T13:02:20;27.80;70.40
30534;DHT22;17318;52.390;9.754;2022-08-19T13:04:46;27.80;69.30
30534;DHT22;17318;52.390;9.754;2022-08-19T13:07:12;27.80;68.80
30534;DHT22;17318;52.390;9.754;2022-08-19T13:09:38;27.70;68.40
30534;DHT22;17318;52.390;9.754;2022-08-19T13:12:06;27.70;67.40
30534;DHT22;17318;52.390;9.754;2022-08-19T13:14:34;27.60;68.80
30534;DHT22;17318;52.390;9.754;2022-08-19T13:17:00;27.80;68.20
30534;DHT22;17318;52.390;9.754;2022-08-19T13:19:26;27.80;68.00
30534;DHT22;17318;52.390;9.754;2022-08-19T13:21:52;27.80;68.00
30534;DHT22;17318;52.390;9.754;2022-08-19T13:24:20;27.80;67.60
30534;DHT22;17318;52.390;9.754;2022-08-19T13:26:46;27.80;67.90
30534;DHT22;17318;52.390;9.754;2022-08-19T13:29:12;27.70;68.40
30534;DHT22;17318;52.390;9.754;2022-08-19T13:31:58;27.70;66.50
30534;DHT22;17318;52.390;9.754;2022-08-19T13:34:42;27.60;67.10
30534;DHT22;17318;52.390;9.754;2022-08-19T13:37:07;27.60;68.60
30534;DHT22;17318;52.390;9.754;2022-08-19T13:39:33;27.60;68.60
30534;DHT22;17318;52.390;9.754;2022-08-19T13:42:00;27.70;68.40
30534;DHT22;17318;52.390;9.754;2022-08-19T13:44:26;27.70;67.70
30534;DHT22;17318;52.390;9.754;2022-08-19T13:46:55;27.70;66.90
30534;DHT22;17318;52.390;9.754;2022-08-19T13:49:25;27.70;67.30
30534;DHT22;17318;52.390;9.754;2022-08-19T13:51:50;27.70;66.40
30534;DHT22;17318;52.390;9.754;2022-08-19T13:54:16;27.60;66.50
30534;DHT22;17318;52.390;9.754;2022-08-19T13:56:44;27.60;66.80
30534;DHT22;17318;52.390;9.754;2022-08-19T13:59:10;27.70;66.80
30534;DHT22;17318;52.390;9.754;2022-08-19T14:01:36;27.70;66.60
30534;DHT22;17318;52.390;9.754;2022-08-19T14:04:03;27.60;66.60
30534;DHT22;17318;52.390;9.754;2022-08-19T14:06:29;27.60;66.40
30534;DHT22;17318;52.390;9.754;2022-08-19T14:08:54;27.50;66.40
30534;DHT22;17318;52.390;9.754;2022-08-19T14:11:20;27.50;66.60
30534;DHT22;17318;52.390;9.754;2022-08-19T14:13:48;27.50;67.30
30534;DHT22;17318;52.390;9.754;2022-08-19T14:16:14;27.50;66.50
30534;DHT22;17318;52.390;9.754;2022-08-19T14:18:40;27.50;66.30
30534;DHT22;17318;52.390;9.754;2022-08-19T14:21:07;27.50;66.20
30534;DHT22;17318;52.390;9.754;2022-08-19T14:23:33;27.50;66.00
30534;DHT22;17318;52.390;9.754;2022-08-19T14:26:12;27.50;65.60
30534;DHT22;17318;52.390;9.754;2022-08-19T14:28:39;27.40;65.30
30534;DHT22;17318;52.390;9.754;2022-08-19T14:31:08;27.40;65.60
30534;DHT22;17318;52.390;9.754;2022-08-19T14:33:34;27.40;66.20
30534;DHT22;17318;52.390;9.754;2022-08-19T14:35:59;27.40;66.10
30534;DHT22;17318;52.390;9.754;2022-08-19T14:38:26;27.40;66.20
30534;DHT22;17318;52.390;9.754;2022-08-19T14:40:51;27.40;66.30
30534;DHT22;17318;52.390;9.754;2022-08-19T14:43:17;27.40;65.90
30534;DHT22;17318;52.390;9.754;2022-08-19T14:45:43;27.50;65.50
30534;DHT22;17318;52.390;9.754;2022-08-19T14:48:09;27.50;65.60
30534;DHT22;17318;52.390;9.754;2022-08-19T14:50:35;27.50;65.80
30534;DHT22;17318;52.390;9.754;2022-08-19T14:53:07;27.50;65.40
30534;DHT22;17318;52.390;9.754;2022-08-19T14:55:34;27.40;65.20
30534;DHT22;17318;52.390;9.754;2022-08-19T14:58:00;27.30;64.80
30534;DHT22;17318;52.390;9.754;2022-08-19T15:00:27;27.30;65.50
30534;DHT22;17318;52.390;9.754;2022-08-19T15:02:53;27.30;65.50
30534;DHT22;17318;52.390;9.754;2022-08-19T15:05:20;27.30;65.10
30534;DHT22;17318;52.390;9.754;2022-08-19T15:07:46;27.30;65.80
30534;DHT22;17318;52.390;9.754;2022-08-19T15:10:13;27.40;66.00
30534;DHT22;17318;52.390;9.754;2022-08-19T15:12:39;27.40;65.10
30534;DHT22;17318;52.390;9.754;2022-08-19T15:15:07;27.40;64.90
30534;DHT22;17318;52.390;9.754;2022-08-19T15:17:34;27.40;65.20
30534;DHT22;17318;52.390;9.754;2022-08-19T15:20:03;27.40;64.90
30534;DHT22;17318;52.390;9.754;2022-08-19T15:22:30;27.30;64.70
30534;DHT22;17318;52.390;9.754;2022-08-19T15:24:56;27.30;64.90
30534;DHT22;17318;52.390;9.754;2022-08-19T15:27:21;27.30;64.70
30534;DHT22;17318;52.390;9.754;2022-08-19T15:29:47;27.30;65.20
30534;DHT22;17318;52.390;9.754;2022-08-19T15:32:13;27.30;65.50
30534;DHT22;17318;52.390;9.754;2022-08-19T15:34:38;27.30;65.50
30534;DHT22;17318;52.390;9.754;2022-08-19T15:37:04;27.40;65.50
30534;DHT22;17318;52.390;9.754;2022-08-19T15:39:31;27.40;65.50
30534;DHT22;17318;52.390;9.754;2022-08-19T15:41:57;27.30;65.80
30534;DHT22;17318;52.390;9.754;2022-08-19T15:44:25;27.30;65.10
30534;DHT22;17318;52.390;9.754;2022-08-19T15:46:51;27.30;64.60